Time;durP1;ratioP1;P1;durP2;ratioP2;P2;SDS_P1;SDS_P2;PMS_P1;PMS_P2;Temp;Humidity;BMP_temperature;BMP_pressure;BME280_temperature;BME280_humidity;BME280_pressure;Samples;Min_cycle;Max_cycle;Signal;HPM_P1;HPM_P2
2022/12/29 00:02:18;;;;;;;5.82;0.73;;;;;;;8.24;100.00;97051.13;7394396;19;20062;-90
2022/12/29 00:04:44;;;;;;;0.47;0.10;;;;;;;8.25;100.00;97056.16;7395362;19;20419;-91
2022/12/29 00:07:10;;;;;;;10.15;0.20;;;;;;;8.27;100.00;97061.19;7394734;19;20010;-90
2022/12/29 00:09:36;;;;;;;1.10;0.32;;;;;;;8.24;100.00;97059.44;7394359;19;20014;-91
2022/12/29 00:12:03;;;;;;;0.40;0.40;;;;;;;8.19;100.00;97049.19;7394325;19;20015;-91
2022/12/29 00:17:15;;;;;;;0.38;0.30;;;;;;;8.11;100.00;97056.63;7395186;19;20026;-89
2022/12/29 00:36:44;;;;;;;0.20;0.20;;;;;;;7.97;100.00;97010.75;7397080;19;20588;-90
2022/12/29 00:44:52;;;;;;;1.17;0.20;;;;;;;8.00;100.00;97002.09;7397415;19;20032;-91
2022/12/29 00:47:18;;;;;;;0.20;0.20;;;;;;;7.97;100.00;97011.47;7397822;19;20010;-91
2022/12/29 00:49:44;;;;;;;9.90;0.30;;;;;;;7.97;100.00;97019.06;7398964;19;20022;-91
2022/12/29 00:52:12;;;;;;;0.10;0.10;;;;;;;7.98;100.00;97017.75;7393472;19;21351;-83
2022/12/29 00:54:40;;;;;;;4.40;0.20;;;;;;;7.98;100.00;97012.22;7393548;19;20007;-84
2022/12/29 00:57:09;;;;;;;4.07;0.40;;;;;;;7.94;100.00;97026.38;7397512;19;20348;-83
2022/12/29 00:59:36;;;;;;;0.00;0.00;;;;;;;7.96;100.00;97017.53;7394570;19;20022;-83
2022/12/29 01:02:02;;;;;;;4.57;0.50;;;;;;;7.99;100.00;97017.22;7394695;19;20014;-81
2022/12/29 01:04:28;;;;;;;0.63;0.20;;;;;;;8.01;100.00;97014.66;7396069;19;20014;-84
2022/12/29 01:06:55;;;;;;;0.38;0.38;;;;;;;8.01;100.00;97011.19;7398375;19;20059;-83
2022/12/29 01:12:10;;;;;;;0.10;0.10;;;;;;;7.97;100.00;97007.97;7394354;19;20373;-82
2022/12/29 01:14:37;;;;;;;0.30;0.17;;;;;;;7.91;100.00;97008.03;7395088;19;20384;-84
2022/12/29 01:17:04;;;;;;;1.00;0.22;;;;;;;7.88;100.00;97008.34;7392777;19;20022;-83
2022/12/29 01:19:30;;;;;;;0.10;0.00;;;;;;;7.79;100.00;97005.97;7394602;19;20015;-83
2022/12/29 01:21:57;;;;;;;0.10;0.10;;;;;;;7.71;100.00;97007.84;7394159;19;20477;-83
2022/12/29 01:24:24;;;;;;;1.75;0.95;;;;;;;7.66;100.00;97006.66;7396427;19;20051;-83
2022/12/29 01:26:50;;;;;;;2.92;0.52;;;;;;;7.67;100.00;97002.59;7398180;19;20472;-83
2022/12/29 01:29:16;;;;;;;1.95;0.95;;;;;;;7.68;100.00;97000.56;7394905;19;20015;-83
2022/12/29 01:31:46;;;;;;;0.10;0.10;;;;;;;7.64;100.00;97006.44;7392479;19;20022;-83
2022/12/29 01:34:12;;;;;;;1.05;0.55;;;;;;;7.62;100.00;97006.22;7391648;19;20014;-85
2022/12/29 01:36:39;;;;;;;0.00;0.00;;;;;;;7.65;100.00;97008.66;7391904;19;20414;-84
2022/12/29 01:39:05;;;;;;;6.90;0.30;;;;;;;7.70;100.00;96998.03;7392720;19;20019;-84
2022/12/29 01:41:31;;;;;;;0.10;0.10;;;;;;;7.69;100.00;96996.53;7392941;19;20022;-84
2022/12/29 01:44:00;;;;;;;4.95;0.40;;;;;;;7.65;100.00;97000.34;7400117;19;20014;-84
2022/12/29 01:46:30;;;;;;;1.75;0.45;;;;;;;7.61;100.00;96997.13;7394578;19;20010;-83
2022/12/29 01:49:22;;;;;;;0.00;0.00;;;;;;;7.58;100.00;97000.94;7395630;19;20007;-83
2022/12/29 01:51:54;;;;;;;0.00;0.00;;;;;;;7.60;100.00;97008.75;7395063;19;20015;-84
2022/12/29 01:54:43;;;;;;;7.78;0.50;;;;;;;7.58;100.00;97008.50;7393939;19;20434;-84
2022/12/29 01:57:13;;;;;;;0.10;0.00;;;;;;;7.56;100.00;97011.81;7392091;19;20019;-85
2022/12/29 01:59:46;;;;;;;1.20;0.47;;;;;;;7.57;100.00;97007.78;7392680;19;20011;-85
2022/12/29 02:02:12;;;;;;;0.13;0.03;;;;;;;7.55;100.00;97015.84;7394670;19;20441;-85
2022/12/29 02:04:44;;;;;;;0.00;0.00;;;;;;;7.55;100.00;97004.78;7396184;19;20488;-86
2022/12/29 02:07:17;;;;;;;0.00;0.00;;;;;;;7.54;100.00;97006.03;7395485;19;20352;-85
2022/12/29 02:09:48;;;;;;;1.75;0.52;;;;;;;7.52;100.00;97005.81;7397912;19;20029;-85
2022/12/29 02:12:18;;;;;;;0.10;0.10;;;;;;;7.65;100.00;97019.75;7393381;19;20007;-85
2022/12/29 02:14:45;;;;;;;0.68;0.30;;;;;;;7.96;100.00;97031.41;7392806;19;20015;-86
2022/12/29 02:17:33;;;;;;;0.20;0.10;;;;;;;7.69;100.00;97049.16;7392972;19;20017;-86
2022/12/29 02:20:27;;;;;;;0.10;0.10;;;;;;;7.63;100.00;97077.69;7393266;19;20014;-85
2022/12/29 02:23:12;;;;;;;1.77;0.63;;;;;;;7.70;100.00;97103.28;7393526;19;20339;-83
2022/12/29 02:26:05;;;;;;;0.52;0.38;;;;;;;8.60;100.00;97095.97;7395317;19;20026;-83
2022/12/29 02:28:38;;;;;;;3.20;0.63;;;;;;;8.29;100.00;97112.03;7390208;19;20031;-82
2022/12/29 02:31:27;;;;;;;0.03;0.03;;;;;;;7.76;100.00;97123.34;7389850;19;20594;-83
2022/12/29 02:34:18;;;;;;;0.65;0.47;;;;;;;7.38;100.00;97131.59;7395832;19;20783;-82
2022/12/29 02:37:10;;;;;;;0.10;0.00;;;;;;;7.16;100.00;97134.59;7389303;19;20708;-82
2022/12/29 02:39:54;;;;;;;0.10;0.10;;;;;;;6.98;100.00;97162.94;7392233;19;20088;-80
2022/12/29 02:42:39;;;;;;;0.10;0.00;;;;;;;6.74;100.00;97171.19;7391797;19;20022;-82
2022/12/29 02:45:08;;;;;;;0.00;0.00;;;;;;;6.72;100.00;97159.88;7391421;19;20073;-82
2022/12/29 02:48:00;;;;;;;0.10;0.10;;;;;;;6.41;100.00;97154.84;7391147;19;20035;-83
2022/12/29 02:50:41;;;;;;;0.10;0.00;;;;;;;6.22;100.00;97162.25;7391705;19;20019;-83
2022/12/29 02:53:13;;;;;;;0.00;0.00;;;;;;;6.18;100.00;97178.34;7391726;19;20025;-83
2022/12/29 02:55:41;;;;;;;;;;;;;;;6.13;100.00;97166.81;7391475;19;20019;-82
2022/12/29 02:58:16;;;;;;;0.10;0.00;;;;;;;6.14;100.00;97159.28;7389139;19;20017;-83
2022/12/29 03:01:12;;;;;;;0.10;0.00;;;;;;;6.43;100.00;97153.06;7391328;19;20006;-84
2022/12/29 03:03:57;;;;;;;0.00;0.00;;;;;;;6.43;100.00;97174.44;7396012;19;20018;-84
2022/12/29 03:06:58;;;;;;;0.00;0.00;;;;;;;6.44;100.00;97170.41;7396145;19;20018;-84
2022/12/29 03:09:47;;;;;;;0.00;0.00;;;;;;;6.40;100.00;97169.94;7392671;19;20014;-84
2022/12/29 03:16:00;;;;;;;0.00;0.00;;;;;;;6.23;100.00;97177.56;7390845;19;20381;-85
2022/12/29 03:18:47;;;;;;;0.10;0.08;;;;;;;6.76;100.00;97190.78;7393093;19;20409;-85
2022/12/29 03:22:26;;;;;;;0.25;0.25;;;;;;;6.65;100.00;97196.38;7395575;19;20022;-86
2022/12/29 03:24:10;;;;;;;0.00;0.00;;;;;;;6.62;100.00;97208.50;7391648;19;20473;-86
2022/12/29 03:26:37;;;;;;;0.15;0.05;;;;;;;6.60;100.00;97222.84;7396689;19;20015;-86
2022/12/29 03:29:06;;;;;;;0.00;0.00;;;;;;;6.61;100.00;97215.28;7393604;19;20011;-89
2022/12/29 03:31:32;;;;;;;0.10;0.03;;;;;;;6.59;100.00;97212.25;7394452;19;20022;-89
2022/12/29 03:33:59;;;;;;;0.00;0.00;;;;;;;6.62;100.00;97230.59;7399659;19;20017;-88
2022/12/29 03:36:38;;;;;;;0.00;0.00;;;;;;;6.62;100.00;97233.38;7394209;19;20018;-88
2022/12/29 03:39:11;;;;;;;0.10;0.00;;;;;;;6.57;100.00;97234.16;7393964;19;20050;-88
2022/12/29 03:41:41;;;;;;;4.20;0.65;;;;;;;6.69;100.00;97241.84;7393644;19;20014;-87
2022/12/29 03:44:08;;;;;;;0.00;0.00;;;;;;;6.74;100.00;97249.38;7397280;19;20010;-88
2022/12/29 03:46:35;;;;;;;0.30;0.20;;;;;;;6.78;100.00;97255.38;7395703;19;20046;-88
2022/12/29 03:49:02;;;;;;;0.03;0.03;;;;;;;6.66;100.00;97248.44;7392986;19;20018;-88
2022/12/29 03:51:28;;;;;;;0.10;0.00;;;;;;;6.59;100.00;97262.03;7392338;19;20245;-88
2022/12/29 03:53:55;;;;;;;0.00;0.00;;;;;;;6.78;100.00;97246.31;7392981;19;20019;-87
2022/12/29 03:56:22;;;;;;;0.08;0.00;;;;;;;6.74;100.00;97243.09;7392612;19;20014;-88
2022/12/29 03:58:49;;;;;;;0.45;0.08;;;;;;;6.72;100.00;97251.16;7392588;19;20021;-88
2022/12/29 04:01:20;;;;;;;;;;;;;;;6.71;100.00;97260.72;7399825;19;20404;-89
2022/12/29 04:03:46;;;;;;;0.10;0.00;;;;;;;6.69;100.00;97260.50;7402826;19;19919;-88
2022/12/29 04:06:12;;;;;;;0.10;0.10;;;;;;;6.68;100.00;97268.03;7398244;19;20006;-89
2022/12/29 04:08:52;;;;;;;0.20;0.13;;;;;;;6.72;100.00;97268.50;7398679;19;20073;-87
2022/12/29 04:11:20;;;;;;;0.00;0.00;;;;;;;6.70;100.00;97279.31;7397973;19;20014;-88
2022/12/29 04:13:46;;;;;;;0.00;0.00;;;;;;;6.71;100.00;97293.91;7402000;19;20088;-87
2022/12/29 04:16:15;;;;;;;0.00;0.00;;;;;;;6.64;100.00;97291.69;7401017;19;20032;-88
2022/12/29 04:18:41;;;;;;;2.92;0.20;;;;;;;6.61;100.00;97298.22;7401093;19;20018;-88
2022/12/29 04:21:08;;;;;;;0.10;0.10;;;;;;;6.19;100.00;97293.16;7400012;19;20044;-88
2022/12/29 04:23:38;;;;;;;0.00;0.00;;;;;;;6.39;100.00;97312.16;7404687;19;20082;-89
2022/12/29 04:26:08;;;;;;;0.00;0.00;;;;;;;6.23;100.00;97318.50;7401878;19;20467;-89
2022/12/29 04:28:39;;;;;;;0.10;0.00;;;;;;;6.02;100.00;97315.31;7401008;19;20014;-88
2022/12/29 04:31:35;;;;;;;0.00;0.00;;;;;;;5.84;100.00;97330.41;7397806;19;20018;-88
2022/12/29 04:34:01;;;;;;;0.00;0.00;;;;;;;5.74;100.00;97334.66;7402872;19;20021;-89
2022/12/29 04:36:28;;;;;;;0.00;0.00;;;;;;;5.67;100.00;97337.94;7397593;19;20011;-89
2022/12/29 04:38:54;;;;;;;0.10;0.10;;;;;;;5.63;100.00;97347.72;7398202;19;20011;-89
2022/12/29 04:41:20;;;;;;;0.10;0.00;;;;;;;5.60;100.00;97346.72;7397715;19;20073;-89
2022/12/29 04:43:48;;;;;;;0.10;0.00;;;;;;;5.58;100.00;97354.75;7405276;19;20014;-90
2022/12/29 04:46:19;;;;;;;0.00;0.00;;;;;;;6.03;100.00;97352.72;7401865;19;20021;-89
2022/12/29 04:48:54;;;;;;;0.52;0.20;;;;;;;5.91;100.00;97354.00;7400008;19;20615;-92
2022/12/29 04:55:08;;;;;;;0.10;0.00;;;;;;;5.63;100.00;97370.53;7397424;19;20007;-53
2022/12/29 04:57:35;;;;;;;0.10;0.00;;;;;;;5.52;100.00;97376.09;7394278;19;20010;-53
2022/12/29 05:00:01;;;;;;;0.00;0.00;;;;;;;5.41;100.00;97387.13;7395671;19;20003;-53
2022/12/29 05:02:27;;;;;;;20.58;1.40;;;;;;;5.37;100.00;97397.66;7397478;19;20010;-53
2022/12/29 05:04:55;;;;;;;0.10;0.00;;;;;;;5.56;100.00;97398.69;7393976;19;20011;-53
2022/12/29 05:07:22;;;;;;;0.08;0.00;;;;;;;5.56;100.00;97420.00;7393107;19;20010;-52
2022/12/29 05:09:48;;;;;;;0.30;0.10;;;;;;;5.55;100.00;97408.19;7394380;19;20018;-52
2022/12/29 05:12:15;;;;;;;0.00;0.00;;;;;;;5.49;100.00;97421.25;7393901;19;20026;-53
2022/12/29 05:15:02;;;;;;;0.10;0.00;;;;;;;5.44;100.00;97419.22;7397000;19;20020;-53
2022/12/29 05:17:29;;;;;;;0.10;0.00;;;;;;;5.39;100.00;97431.03;7395808;19;20074;-53
2022/12/29 05:19:56;;;;;;;0.10;0.00;;;;;;;5.35;100.00;97431.25;7395878;19;20021;-53
2022/12/29 05:22:23;;;;;;;0.10;0.10;;;;;;;5.34;100.00;97442.81;7396735;19;20022;-53
2022/12/29 05:24:50;;;;;;;0.00;0.00;;;;;;;5.22;100.00;97447.53;7395549;19;20013;-53
2022/12/29 05:27:16;;;;;;;0.00;0.00;;;;;;;5.21;100.00;97450.78;7395552;19;20018;-53
2022/12/29 05:30:03;;;;;;;0.10;0.00;;;;;;;5.24;100.00;97455.34;7394818;19;20007;-53
2022/12/29 05:32:30;;;;;;;0.10;0.00;;;;;;;5.28;100.00;97458.59;7396734;19;20028;-53
2022/12/29 05:34:56;;;;;;;0.20;0.10;;;;;;;5.30;100.00;97464.38;7395647;19;20062;-53
2022/12/29 05:37:23;;;;;;;0.10;0.00;;;;;;;5.09;100.00;97469.31;7395407;19;20011;-53
2022/12/29 05:39:50;;;;;;;0.10;0.00;;;;;;;5.10;100.00;97475.59;7394724;19;20041;-52
2022/12/29 05:42:16;;;;;;;1.02;0.75;;;;;;;5.12;100.00;97475.84;7396230;19;20019;-52
2022/12/29 05:44:53;;;;;;;0.20;0.20;;;;;;;5.22;100.00;97483.41;7395974;19;20392;-52
2022/12/29 05:47:38;;;;;;;0.00;0.00;;;;;;;5.34;100.00;97478.69;7397737;19;20015;-52
2022/12/29 05:50:24;;;;;;;0.10;0.00;;;;;;;5.33;100.00;97479.91;7396229;19;20469;-52
2022/12/29 05:53:08;;;;;;;0.17;0.17;;;;;;;5.46;100.00;97460.88;7394718;19;20010;-92
2022/12/29 05:55:36;;;;;;;0.00;0.00;;;;;;;5.73;100.00;97485.03;7396910;19;20022;-94
2022/12/29 05:58:02;;;;;;;0.00;0.00;;;;;;;5.90;100.00;97483.06;7396907;19;20014;-93
2022/12/29 06:00:28;;;;;;;0.40;0.20;;;;;;;5.91;100.00;97484.56;7396538;19;20465;-95
2022/12/29 06:02:54;;;;;;;0.00;0.00;;;;;;;5.68;100.00;97496.81;7402043;19;20014;-94
2022/12/29 06:05:20;;;;;;;0.10;0.10;;;;;;;5.50;100.00;97500.03;7398317;19;20017;-95
2022/12/29 06:07:47;;;;;;;0.10;0.10;;;;;;;5.41;100.00;97505.78;7398175;19;20015;-94
2022/12/29 06:10:16;;;;;;;0.10;0.10;;;;;;;5.30;100.00;97500.25;7398957;19;20018;-94
2022/12/29 06:12:49;;;;;;;0.00;0.00;;;;;;;5.43;100.00;97511.56;7399941;19;20016;-94
2022/12/29 06:15:16;;;;;;;0.10;0.10;;;;;;;5.12;100.00;97519.97;7400147;19;20040;-96
2022/12/29 06:17:43;;;;;;;0.20;0.20;;;;;;;5.09;100.00;97526.50;7400617;19;20026;-94
2022/12/29 06:20:10;;;;;;;0.10;0.10;;;;;;;5.05;100.00;97531.47;7398135;19;20002;-95
2022/12/29 06:22:37;;;;;;;0.10;0.10;;;;;;;5.12;100.00;97534.53;7394525;19;20026;-90
2022/12/29 06:25:05;;;;;;;22.63;0.80;;;;;;;4.96;100.00;97540.72;7398681;19;20357;-91
2022/12/29 06:27:32;;;;;;;0.10;0.00;;;;;;;5.50;100.00;97538.66;7401025;19;20038;-93
2022/12/29 06:29:58;;;;;;;0.10;0.00;;;;;;;5.54;100.00;97544.72;7397192;19;20014;-94
2022/12/29 06:32:24;;;;;;;0.10;0.10;;;;;;;5.27;100.00;97545.38;7398762;19;20006;-94
2022/12/29 06:34:53;;;;;;;0.10;0.10;;;;;;;5.14;100.00;97551.34;7395570;19;20010;-93
2022/12/29 06:37:19;;;;;;;0.00;0.00;;;;;;;5.11;100.00;97565.38;7395381;19;20018;-93
2022/12/29 06:39:45;;;;;;;0.10;0.00;;;;;;;5.02;100.00;97562.81;7395855;19;20495;-95
2022/12/29 06:42:13;;;;;;;0.10;0.10;;;;;;;4.99;100.00;97572.84;7396579;19;20081;-93
2022/12/29 06:44:45;;;;;;;0.10;0.10;;;;;;;4.96;100.00;97562.78;7397377;19;20034;-94
2022/12/29 06:47:11;;;;;;;0.20;0.20;;;;;;;4.95;100.00;97571.56;7398677;19;20013;-95
2022/12/29 06:49:37;;;;;;;0.00;0.00;;;;;;;4.91;100.00;97576.56;7398397;19;20014;-94
2022/12/29 06:52:04;;;;;;;0.20;0.20;;;;;;;5.02;100.00;97576.63;7397085;19;20014;-94
2022/12/29 06:54:30;;;;;;;0.32;0.20;;;;;;;6.00;100.00;97580.22;7394746;19;20078;-94
2022/12/29 06:56:57;;;;;;;0.00;0.00;;;;;;;5.65;100.00;97580.63;7395731;19;20014;-93
2022/12/29 06:59:24;;;;;;;0.10;0.00;;;;;;;5.85;100.00;97586.00;7394201;19;20011;-94
2022/12/29 07:01:51;;;;;;;0.10;0.10;;;;;;;5.51;100.00;97600.91;7395737;19;20059;-93
2022/12/29 07:04:17;;;;;;;0.55;0.10;;;;;;;5.71;100.00;97606.28;7397598;19;20018;-93
2022/12/29 07:06:44;;;;;;;0.10;0.10;;;;;;;5.22;100.00;97604.03;7396879;19;20021;-94
2022/12/29 07:09:10;;;;;;;0.10;0.10;;;;;;;5.09;100.00;97606.50;7396310;19;20033;-93
2022/12/29 07:11:36;;;;;;;0.03;0.00;;;;;;;5.13;100.00;97609.78;7395632;19;20015;-93
2022/12/29 07:14:03;;;;;;;0.10;0.10;;;;;;;5.40;100.00;97606.38;7399963;19;20022;-94
2022/12/29 07:16:30;;;;;;;0.88;0.80;;;;;;;4.99;100.00;97628.00;7396180;19;20010;-93
2022/12/29 07:18:56;;;;;;;3.58;0.98;;;;;;;4.93;100.00;97635.47;7396347;19;20010;-94
2022/12/29 07:21:23;;;;;;;0.52;0.38;;;;;;;5.02;100.00;97643.56;7395362;19;20370;-93
2022/12/29 07:23:49;;;;;;;0.05;0.05;;;;;;;5.15;100.00;97645.91;7399780;19;20093;-92
2022/12/29 07:26:17;;;;;;;0.20;0.15;;;;;;;5.23;100.00;97653.22;7394681;19;20027;-94
2022/12/29 07:28:44;;;;;;;0.10;0.00;;;;;;;5.28;100.00;97666.28;7395268;19;20538;-94
2022/12/29 07:31:16;;;;;;;0.30;0.30;;;;;;;5.55;100.00;97664.16;7393583;19;20019;-93
2022/12/29 07:33:45;;;;;;;0.00;0.00;;;;;;;5.87;100.00;97671.88;7397565;19;20049;-93
2022/12/29 07:36:13;;;;;;;0.08;0.00;;;;;;;6.02;100.00;97672.41;7403030;19;20018;-93
2022/12/29 07:38:40;;;;;;;0.10;0.00;;;;;;;6.13;100.00;97682.75;7403301;19;20011;-93
2022/12/29 07:41:06;;;;;;;0.00;0.00;;;;;;;6.05;100.00;97682.47;7406239;19;20504;-91
2022/12/29 07:43:33;;;;;;;0.00;0.00;;;;;;;6.07;100.00;97687.50;7408835;19;20015;-95
2022/12/29 07:46:19;;;;;;;0.10;0.00;;;;;;;5.99;100.00;97703.81;7402195;19;20007;-93
2022/12/29 07:48:45;;;;;;;0.10;0.10;;;;;;;6.19;100.00;97696.59;7404045;19;20476;-94
2022/12/29 07:51:11;;;;;;;0.00;0.00;;;;;;;6.09;100.00;97699.56;7402703;19;20010;-95
2022/12/29 07:53:37;;;;;;;0.00;0.00;;;;;;;6.68;100.00;97707.75;7404437;19;20034;-92
2022/12/29 07:56:04;;;;;;;0.10;0.10;;;;;;;6.72;100.00;97693.66;7406726;19;20019;-87
2022/12/29 07:58:30;;;;;;;0.43;0.10;;;;;;;6.16;100.00;97703.88;7400681;19;20018;-90
2022/12/29 08:00:56;;;;;;;0.00;0.00;;;;;;;5.95;100.00;97703.31;7399027;19;20093;-88
2022/12/29 08:03:24;;;;;;;5.63;0.15;;;;;;;5.95;100.00;97710.84;7401486;19;20347;-91
2022/12/29 08:05:50;;;;;;;2.10;0.17;;;;;;;5.70;100.00;97720.72;7398571;19;20018;-89
2022/12/29 08:08:16;;;;;;;0.20;0.10;;;;;;;5.68;100.00;97709.41;7398301;19;20011;-90
2022/12/29 08:10:43;;;;;;;0.10;0.08;;;;;;;5.64;100.00;97719.94;7397504;19;20026;-91
2022/12/29 08:13:09;;;;;;;0.10;0.10;;;;;;;5.72;100.00;97723.75;7397712;19;20028;-91
2022/12/29 08:15:37;;;;;;;0.47;0.43;;;;;;;5.75;100.00;97727.53;7396793;19;20078;-90
2022/12/29 08:18:03;;;;;;;0.00;0.00;;;;;;;5.78;100.00;97734.84;7401615;19;20528;-89
2022/12/29 08:20:29;;;;;;;6.18;0.25;;;;;;;5.78;100.00;97738.31;7399921;19;20015;-89
2022/12/29 08:22:55;;;;;;;0.50;0.22;;;;;;;5.73;100.00;97744.59;7398376;19;20047;-81
2022/12/29 08:25:22;;;;;;;0.10;0.00;;;;;;;5.67;100.00;97748.56;7394025;19;20353;-80
2022/12/29 08:27:48;;;;;;;0.10;0.10;;;;;;;5.63;100.00;97757.06;7392507;19;20352;-83
2022/12/29 08:30:14;;;;;;;0.10;0.10;;;;;;;5.58;100.00;97757.81;7394713;19;20033;-82
2022/12/29 08:32:40;;;;;;;0.30;0.30;;;;;;;5.53;100.00;97761.28;7396135;19;20010;-82
2022/12/29 08:35:07;;;;;;;1.10;0.50;;;;;;;5.59;100.00;97764.09;7396613;19;20010;-81
2022/12/29 08:37:34;;;;;;;0.03;0.00;;;;;;;5.60;100.00;97773.88;7396780;19;20018;-82
2022/12/29 08:40:03;;;;;;;0.00;0.00;;;;;;;5.61;100.00;97778.91;7393524;19;20089;-84
2022/12/29 08:42:30;;;;;;;0.17;0.15;;;;;;;5.56;100.00;97792.69;7395825;19;20052;-84
2022/12/29 08:44:58;;;;;;;0.10;0.00;;;;;;;5.49;100.00;97799.41;7391780;19;20015;-84
2022/12/29 08:47:25;;;;;;;0.10;0.00;;;;;;;5.38;100.00;97791.03;7388027;19;20015;-83
2022/12/29 08:49:51;;;;;;;0.68;0.30;;;;;;;5.32;100.00;97787.50;7391689;19;20081;-84
2022/12/29 08:52:18;;;;;;;0.38;0.30;;;;;;;5.29;100.00;97796.75;7392517;19;20011;-83
2022/12/29 08:54:44;;;;;;;0.10;0.00;;;;;;;5.29;100.00;97810.53;7389998;19;20516;-84
2022/12/29 08:57:11;;;;;;;0.55;0.20;;;;;;;5.28;100.00;97803.53;7390890;19;20017;-83
2022/12/29 08:59:46;;;;;;;0.10;0.00;;;;;;;5.31;100.00;97803.28;7390896;19;20472;-84
2022/12/29 09:02:13;;;;;;;0.38;0.05;;;;;;;5.30;100.00;97806.53;7394174;19;20014;-83
2022/12/29 09:04:39;;;;;;;0.10;0.00;;;;;;;5.25;100.00;97819.03;7396813;19;20026;-83
2022/12/29 09:07:05;;;;;;;0.20;0.20;;;;;;;5.30;100.00;97812.06;7396394;19;20047;-83
2022/12/29 09:09:32;;;;;;;0.15;0.10;;;;;;;5.35;100.00;97808.56;7396233;19;20015;-83
2022/12/29 09:11:58;;;;;;;0.00;0.00;;;;;;;5.23;100.00;97807.75;7394468;19;20297;-83
2022/12/29 09:14:24;;;;;;;0.10;0.00;;;;;;;5.30;100.00;97817.56;7393511;19;20041;-80
2022/12/29 09:19:36;;;;;;;0.10;0.00;;;;;;;5.38;100.00;97824.16;7392562;19;20041;-83
2022/12/29 09:22:02;;;;;;;0.10;0.00;;;;;;;6.47;100.00;97810.75;7392263;19;20312;-83
2022/12/29 09:24:29;;;;;;;0.10;0.00;;;;;;;6.23;100.00;97813.16;7393776;19;20082;-83
2022/12/29 09:26:55;;;;;;;0.10;0.00;;;;;;;6.00;100.00;97809.53;7399146;19;20342;-83
2022/12/29 09:29:21;;;;;;;0.30;0.30;;;;;;;5.83;100.00;97822.47;7394678;19;20464;-84
2022/12/29 09:31:47;;;;;;;0.10;0.00;;;;;;;5.55;100.00;97827.03;7393816;19;20019;-83
2022/12/29 09:34:14;;;;;;;0.57;0.20;;;;;;;5.32;100.00;97826.88;7391814;19;20022;-84
2022/12/29 09:36:40;;;;;;;4.13;0.30;;;;;;;5.20;100.00;97841.06;7391417;19;20022;-84
2022/12/29 09:39:07;;;;;;;0.57;0.10;;;;;;;5.31;100.00;97835.63;7391323;19;20014;-83
2022/12/29 09:41:47;;;;;;;0.32;0.17;;;;;;;5.35;100.00;97852.72;7392865;19;20431;-84
2022/12/29 09:44:31;;;;;;;1.05;0.40;;;;;;;5.45;100.00;97845.81;7391175;19;20378;-83
2022/12/29 09:47:00;;;;;;;0.10;0.10;;;;;;;5.47;100.00;97857.09;7392178;19;20022;-83
2022/12/29 09:49:26;;;;;;;0.00;0.00;;;;;;;5.53;100.00;97857.91;7390912;19;20075;-84
2022/12/29 09:51:56;;;;;;;0.10;0.00;;;;;;;5.54;100.00;97864.97;7390172;19;20006;-84
2022/12/29 09:54:56;;;;;;;11.60;0.40;;;;;;;5.57;100.00;97866.72;7390785;19;20368;-83
2022/12/29 09:57:42;;;;;;;0.10;0.10;;;;;;;5.67;100.00;97873.59;7389726;19;20045;-84
2022/12/29 10:00:20;;;;;;;0.10;0.10;;;;;;;5.73;100.00;97876.38;7389514;19;20014;-84
2022/12/29 10:02:54;;;;;;;0.10;0.10;;;;;;;5.82;100.00;97871.44;7394951;19;20349;-83
2022/12/29 10:05:31;;;;;;;0.10;0.00;;;;;;;5.88;100.00;97872.25;7391880;19;20023;-84
2022/12/29 10:08:16;;;;;;;0.00;0.00;;;;;;;5.87;100.00;97876.25;7392425;19;20023;-85
2022/12/29 10:10:56;;;;;;;0.08;0.08;;;;;;;5.96;100.00;97878.84;7391571;19;20018;-84
2022/12/29 10:14:01;;;;;;;0.10;0.00;;;;;;;5.96;100.00;97878.06;7395821;19;20014;-82
2022/12/29 10:16:45;;;;;;;0.05;0.05;;;;;;;5.91;100.00;97881.56;7392560;19;20022;-82
2022/12/29 10:19:57;;;;;;;0.50;0.20;;;;;;;5.84;100.00;97893.84;7392084;19;20006;-81
2022/12/29 10:22:28;;;;;;;8.25;1.92;;;;;;;5.84;100.00;97899.34;7390520;19;20112;-81
2022/12/29 10:24:56;;;;;;;0.00;0.00;;;;;;;5.90;100.00;97902.16;7393985;19;20010;-82
2022/12/29 10:27:24;;;;;;;0.17;0.17;;;;;;;5.93;100.00;97907.44;7394697;19;20023;-82
2022/12/29 10:29:55;;;;;;;0.10;0.03;;;;;;;5.98;100.00;97915.00;7396126;19;20022;-82
2022/12/29 10:32:49;;;;;;;3.00;1.45;;;;;;;6.08;100.00;97918.34;7392500;19;20033;-81
2022/12/29 10:35:18;;;;;;;5.47;0.30;;;;;;;6.07;100.00;97917.59;7392626;19;20051;-82
2022/12/29 10:37:57;;;;;;;0.10;0.00;;;;;;;6.08;100.00;97919.13;7385155;19;20030;-82
2022/12/29 10:40:33;;;;;;;1.00;0.47;;;;;;;6.07;100.00;97923.13;7384853;19;20044;-82
2022/12/29 10:43:00;;;;;;;0.20;0.10;;;;;;;6.05;100.00;97913.81;7388679;19;20018;-82
2022/12/29 10:45:30;;;;;;;0.30;0.30;;;;;;;6.05;100.00;97914.56;7387485;19;20465;-81
2022/12/29 10:48:06;;;;;;;0.10;0.00;;;;;;;6.07;100.00;97922.34;7384856;19;20014;-81
2022/12/29 10:50:32;;;;;;;0.20;0.10;;;;;;;6.19;100.00;97923.19;7385123;19;20025;-81
2022/12/29 10:53:02;;;;;;;0.60;0.20;;;;;;;6.22;100.00;97913.91;7391624;19;20330;-82
2022/12/29 10:55:34;;;;;;;4.88;0.47;;;;;;;6.23;100.00;97918.19;7392571;19;20033;-83
2022/12/29 10:58:05;;;;;;;0.10;0.00;;;;;;;6.32;100.00;97927.06;7392497;19;20042;-82
2022/12/29 11:00:32;;;;;;;0.90;0.20;;;;;;;6.38;100.00;97927.09;7390698;19;20018;-81
2022/12/29 11:03:29;;;;;;;0.10;0.10;;;;;;;6.48;100.00;97925.63;7395926;19;20022;-82
2022/12/29 11:06:22;;;;;;;3.40;0.20;;;;;;;6.64;100.00;97917.44;7390735;19;20019;-82
2022/12/29 11:08:56;;;;;;;0.10;0.10;;;;;;;6.69;100.00;97921.47;7388718;19;20472;-81
2022/12/29 11:11:26;;;;;;;0.17;0.10;;;;;;;6.69;100.00;97915.94;7389666;19;20369;-82
2022/12/29 11:13:58;;;;;;;0.20;0.20;;;;;;;6.70;100.00;97918.19;7394823;19;20035;-82
2022/12/29 11:16:33;;;;;;;1.13;0.50;;;;;;;6.78;100.00;97929.53;7391083;19;20025;-82
2022/12/29 11:19:01;;;;;;;0.30;0.20;;;;;;;6.88;100.00;97922.56;7391007;19;20024;-82
2022/12/29 11:21:29;;;;;;;0.52;0.43;;;;;;;6.94;100.00;97920.56;7390153;19;20015;-82
2022/12/29 11:23:59;;;;;;;4.40;1.45;;;;;;;6.80;100.00;97921.50;7395645;19;20023;-82
2022/12/29 11:26:27;;;;;;;4.22;1.40;;;;;;;6.86;100.00;97927.84;7394531;19;20021;-81
2022/12/29 11:29:08;;;;;;;9.98;1.65;;;;;;;6.83;100.00;97937.13;7389313;19;20035;-82
2022/12/29 11:31:41;;;;;;;;;;;;;;;6.88;100.00;97933.63;7391969;19;20045;-81
2022/12/29 11:34:08;;;;;;;13.75;1.55;;;;;;;6.62;100.00;97933.75;7389503;19;20312;-81
2022/12/29 11:36:35;;;;;;;16.77;2.50;;;;;;;6.61;100.00;97931.47;7389899;19;20019;-82
2022/12/29 11:39:02;;;;;;;4.63;1.02;;;;;;;6.79;100.00;97936.59;7389335;19;20036;-82
2022/12/29 11:41:31;;;;;;;4.30;0.55;;;;;;;6.67;100.00;97935.78;7386780;19;20014;-82
2022/12/29 11:44:01;;;;;;;1.08;0.57;;;;;;;7.61;100.00;97915.91;7394954;19;20026;-82
2022/12/29 11:46:35;;;;;;;0.77;0.55;;;;;;;7.63;100.00;97936.31;7389887;19;20023;-82
2022/12/29 11:49:03;;;;;;;10.23;1.35;;;;;;;7.54;100.00;97933.78;7391217;19;20048;-82
2022/12/29 11:51:44;;;;;;;1.02;0.45;;;;;;;7.43;100.00;97928.22;7385918;19;20018;-81
2022/12/29 11:54:22;;;;;;;5.17;0.40;;;;;;;7.36;100.00;97928.72;7386745;19;20015;-82
2022/12/29 11:56:49;;;;;;;0.55;0.38;;;;;;;7.41;100.00;97930.75;7388780;19;20267;-81
2022/12/29 11:59:29;;;;;;;1.10;0.40;;;;;;;7.56;100.00;97941.59;7388985;19;20088;-81
2022/12/29 12:01:58;;;;;;;9.43;0.73;;;;;;;7.44;100.00;97946.38;7389072;19;20022;-81
2022/12/29 12:04:28;;;;;;;0.10;0.10;;;;;;;7.44;100.00;97937.31;7390697;19;20015;-81
2022/12/29 12:07:05;;;;;;;0.60;0.40;;;;;;;7.51;100.00;97945.84;7388787;19;20060;-81
2022/12/29 12:09:38;;;;;;;0.63;0.25;;;;;;;7.54;100.00;97944.88;7388973;19;20485;-81
2022/12/29 12:12:08;;;;;;;15.77;1.23;;;;;;;7.49;100.00;97939.34;7390136;19;20003;-80
2022/12/29 12:14:39;;;;;;;3.85;1.15;;;;;;;7.39;100.00;97947.09;7385604;19;20014;-80
2022/12/29 12:17:49;;;;;;;12.98;1.98;;;;;;;7.33;100.00;97948.34;7386652;19;20021;-80
2022/12/29 12:20:42;;;;;;;7.15;0.88;;;;;;;7.30;100.00;97954.88;7387815;19;20106;-80
2022/12/29 12:23:45;;;;;;;10.38;2.30;;;;;;;7.29;100.00;97943.06;7393730;19;20021;-80
2022/12/29 12:26:16;;;;;;;13.68;1.88;;;;;;;7.28;100.00;97946.31;7391656;19;20021;-81
2022/12/29 12:28:44;;;;;;;12.63;1.17;;;;;;;7.21;100.00;97946.81;7393826;19;20487;-80
2022/12/29 12:31:21;;;;;;;8.15;1.83;;;;;;;6.77;100.00;97952.94;7394149;19;20022;-81
2022/12/29 12:33:54;;;;;;;10.55;1.75;;;;;;;6.98;100.00;97942.44;7396705;19;20038;-81